To NAV CANADA Home Page Login to a new session Search on AWWS site Feedback and Comments Disclaimer Vers la page française équivalente Tips FAQ What's new on the site To the Forecasts and Observations / NOTAM section To "File a Flight Plan" website Publications and other links Update of the User's profile FIC Telephone Numbers My Weather Data Folder Route Weather Data Regional Weather Data Local Weather Data To the Forecasts and Observations / NOTAM section
Request Generated 05/28/2016 at 17:59:51 UTC . Weather information available at that time is displayed.

METAR/TAF

GRANDE PRAIRIE/AB    

METAR CYQU 281700Z 26012KT 15SM -SHRA BKN015 OVC040 07/04 A2984 RMK
SC5SC3 CU EMBD SLP126=
METAR CYQU 281600Z 28013KT 8SM -SHRA BKN013 OVC035 06/03 A2984 RMK
SF5SC3 CU EMBD SLP126=
METAR CYQU 281500Z 29013KT 8SM -SHRA BKN012 OVC035 05/03 A2983 RMK
SF6SC2 CU EMBD SLP123=

TAF CYQU 281238Z 2813/2901 28015G25KT P6SM -RA OVC040 TEMPO 2813/2820
P6SM -SHRA OVC020
FM282000 28015G25KT P6SM SCT040 TEMPO 2820/2901 P6SM -SHRA BKN040
PROB30 2820/2901 VRB20G30KT 4SM TSRA BKN040CB
RMK NXT FCST BY 281900Z=
Your time UTC time
Weather data provided by Environment Canada and NAV CANADA